createdAt,value
2023-01-18T00:01:05.485Z,230.20
2023-01-18T00:04:32.598Z,211.40
2023-01-18T00:07:59.849Z,203.20
2023-01-18T00:11:26.932Z,162.00
2023-01-18T00:14:54.248Z,240.80
2023-01-18T00:18:21.330Z,229.80
2023-01-18T00:21:48.533Z,228.40
2023-01-18T00:25:16.129Z,208.20
2023-01-18T00:28:43.793Z,207.90
2023-01-18T00:32:10.896Z,203.00
2023-01-18T00:35:38.056Z,235.30
2023-01-18T00:39:05.586Z,187.40
2023-01-18T00:42:50.507Z,179.30
2023-01-18T00:46:19.557Z,166.30
2023-01-18T00:49:46.627Z,153.50
2023-01-18T00:53:14.014Z,142.90
2023-01-18T00:56:41.196Z,155.50
2023-01-18T01:00:12.398Z,166.80
2023-01-18T01:04:03.102Z,154.20
2023-01-18T01:07:30.120Z,144.60
2023-01-18T01:11:07.646Z,136.50
2023-01-18T01:14:53.886Z,131.10
2023-01-18T01:18:38.463Z,136.30
2023-01-18T01:22:23.276Z,129.90
2023-01-18T01:26:07.877Z,132.00
2023-01-18T01:29:35.044Z,118.40
2023-01-18T01:33:02.121Z,126.40
2023-01-18T01:36:29.291Z,147.70
2023-01-18T01:39:56.554Z,126.70
2023-01-18T01:43:41.807Z,127.10
2023-01-18T01:47:14.345Z,127.10
2023-01-18T01:50:42.907Z,119.40
2023-01-18T01:54:13.302Z,118.80
2023-01-18T01:57:43.504Z,118.20
2023-01-18T02:01:10.521Z,118.70
2023-01-18T02:04:38.621Z,123.00
2023-01-18T02:08:11.335Z,109.60
2023-01-18T02:11:39.316Z,106.60
2023-01-18T02:15:08.344Z,112.50
2023-01-18T02:18:42.209Z,111.00
2023-01-18T02:22:16.596Z,111.70
2023-01-18T02:26:03.813Z,111.30
2023-01-18T02:29:53.679Z,120.40
2023-01-18T02:33:30.072Z,106.80
2023-01-18T02:37:04.276Z,110.80
2023-01-18T02:40:39.387Z,104.00
2023-01-18T02:44:24.197Z,99.70
2023-01-18T02:47:52.099Z,92.10
2023-01-18T02:51:19.021Z,86.50
2023-01-18T02:54:46.431Z,89.60
2023-01-18T02:58:19.179Z,87.90
2023-01-18T03:01:51.906Z,75.60
2023-01-18T03:05:19.777Z,77.80
2023-01-18T03:08:50.129Z,71.80
2023-01-18T03:12:24.413Z,74.60
2023-01-18T03:15:57.293Z,64.20
2023-01-18T03:19:50.362Z,77.40
2023-01-18T03:23:39.949Z,63.00
2023-01-18T03:27:25.665Z,61.60
2023-01-18T03:31:14.704Z,63.90
2023-01-18T03:34:51.325Z,66.30
2023-01-18T03:38:20.250Z,68.80
2023-01-18T03:41:53.699Z,66.10
2023-01-18T03:45:27.460Z,61.80
2023-01-18T03:48:54.487Z,59.80
2023-01-18T03:52:26.799Z,54.00
2023-01-18T03:55:59.737Z,61.30
2023-01-18T03:59:31.277Z,59.70
2023-01-18T04:02:59.261Z,55.90
2023-01-18T04:06:26.982Z,51.50
2023-01-18T04:09:54.247Z,54.00
2023-01-18T04:13:21.300Z,52.30
2023-01-18T04:16:48.391Z,51.40
2023-01-18T04:20:15.602Z,47.60
2023-01-18T04:23:42.921Z,50.60
2023-01-18T04:27:09.914Z,45.50
2023-01-18T04:30:37.243Z,42.90
2023-01-18T04:34:04.369Z,58.10
2023-01-18T04:37:31.356Z,77.90
2023-01-18T04:41:02.984Z,87.90
2023-01-18T04:44:30.184Z,119.80
2023-01-18T04:47:57.204Z,100.20
2023-01-18T04:51:25.050Z,83.70
2023-01-18T04:54:52.387Z,53.60
2023-01-18T04:58:19.960Z,57.30
2023-01-18T05:01:47.077Z,55.60
2023-01-18T05:05:14.364Z,45.70
2023-01-18T05:08:42.490Z,53.70
2023-01-18T05:12:09.955Z,56.40
2023-01-18T05:15:36.935Z,62.10
2023-01-18T05:19:04.045Z,59.90
2023-01-18T05:22:33.070Z,63.50
2023-01-18T05:26:01.223Z,56.40
2023-01-18T05:29:28.203Z,55.90
2023-01-18T05:32:55.199Z,43.70
2023-01-18T05:36:22.141Z,48.90
2023-01-18T05:39:49.175Z,39.70
2023-01-18T05:43:16.531Z,59.30
2023-01-18T05:46:43.440Z,50.50
2023-01-18T05:50:11.621Z,47.10
2023-01-18T05:53:39.807Z,41.80
2023-01-18T05:57:06.772Z,39.90
2023-01-18T06:00:34.405Z,49.20
2023-01-18T06:04:01.520Z,45.20
2023-01-18T06:07:28.645Z,44.10
2023-01-18T06:11:00.650Z,49.20
2023-01-18T06:14:27.631Z,54.50
2023-01-18T06:17:54.659Z,50.30
2023-01-18T06:21:21.755Z,49.40
2023-01-18T06:24:48.848Z,49.80
2023-01-18T06:28:16.267Z,49.40
2023-01-18T06:31:43.678Z,48.10
2023-01-18T06:35:11.715Z,48.60
2023-01-18T06:38:38.594Z,58.30
2023-01-18T06:42:06.649Z,56.50
2023-01-18T06:45:33.645Z,48.10
2023-01-18T06:49:00.643Z,52.00
2023-01-18T06:52:27.639Z,44.20
2023-01-18T06:55:59.753Z,46.10
2023-01-18T06:59:28.505Z,52.20
2023-01-18T07:02:56.595Z,46.10
2023-01-18T07:06:24.239Z,50.50
2023-01-18T07:09:51.255Z,50.30
2023-01-18T07:13:18.196Z,54.00
2023-01-18T07:16:45.195Z,56.90
2023-01-18T07:20:16.597Z,62.20
2023-01-18T07:23:44.430Z,58.50
2023-01-18T07:27:11.933Z,56.00
2023-01-18T07:30:38.864Z,58.20
2023-01-18T07:34:06.276Z,57.80
2023-01-18T07:37:34.929Z,56.00
2023-01-18T07:41:03.326Z,55.60
2023-01-18T07:44:31.011Z,105.10
2023-01-18T07:47:57.944Z,122.20
2023-01-18T07:51:25.280Z,79.60
2023-01-18T07:54:52.695Z,52.70
2023-01-18T07:58:20.066Z,44.90
2023-01-18T08:01:47.022Z,36.80
2023-01-18T08:05:14.217Z,49.70
2023-01-18T08:08:41.688Z,46.80
2023-01-18T08:12:13.671Z,53.00
2023-01-18T08:15:41.617Z,47.00
2023-01-18T08:19:08.843Z,46.10
2023-01-18T08:22:35.888Z,52.80
2023-01-18T08:26:05.115Z,60.50
2023-01-18T08:29:32.242Z,64.40
2023-01-18T08:33:01.644Z,62.40
2023-01-18T08:36:28.669Z,55.80
2023-01-18T08:39:55.855Z,43.60
2023-01-18T08:43:24.282Z,46.00
2023-01-18T08:46:51.328Z,53.50
2023-01-18T08:50:18.861Z,66.00
2023-01-18T08:53:46.425Z,74.50
2023-01-18T08:57:13.628Z,74.10
2023-01-18T09:00:40.573Z,89.10
2023-01-18T09:04:07.750Z,76.10
2023-01-18T09:07:34.729Z,88.10
2023-01-18T09:11:05.988Z,88.20
2023-01-18T09:14:32.921Z,98.50
2023-01-18T09:18:05.206Z,77.70
2023-01-18T09:21:32.397Z,80.90
2023-01-18T09:24:59.426Z,65.30
2023-01-18T09:28:26.429Z,198.00
2023-01-18T09:31:54.466Z,199.10
2023-01-18T09:35:21.518Z,134.00
2023-01-18T09:38:48.627Z,110.00
2023-01-18T09:42:22.071Z,189.30
2023-01-18T09:45:50.744Z,200.50
2023-01-18T09:49:23.125Z,88.60
2023-01-18T09:52:58.805Z,85.60
2023-01-18T09:56:31.854Z,97.10
2023-01-18T10:00:00.694Z,101.30
2023-01-18T10:03:35.491Z,71.40
2023-01-18T10:07:06.574Z,62.60
2023-01-18T10:10:38.003Z,63.70
2023-01-18T10:14:09.464Z,48.30
2023-01-18T10:17:39.249Z,64.40
2023-01-18T10:21:09.451Z,68.80
2023-01-18T10:24:47.153Z,89.80
2023-01-18T10:28:29.344Z,67.30
2023-01-18T10:32:02.594Z,66.80
2023-01-18T10:35:34.386Z,80.80
2023-01-18T10:39:04.546Z,58.90
2023-01-18T10:42:39.763Z,68.30
2023-01-18T10:46:16.666Z,61.40
2023-01-18T10:49:46.104Z,62.60
2023-01-18T10:53:28.444Z,71.40
2023-01-18T10:57:05.724Z,59.70
2023-01-18T11:00:36.213Z,75.90
2023-01-18T11:04:07.571Z,84.60
2023-01-18T11:07:34.899Z,47.00
2023-01-18T11:11:04.536Z,49.30
2023-01-18T11:18:09.744Z,58.70
2023-01-18T11:21:50.705Z,50.90
2023-01-18T11:25:20.958Z,48.70
2023-01-18T11:28:55.905Z,48.50
2023-01-18T11:32:25.698Z,54.90
2023-01-18T11:35:59.224Z,53.50
2023-01-18T11:39:34.725Z,67.80
2023-01-18T11:43:04.749Z,75.60
2023-01-18T11:46:40.213Z,64.90
2023-01-18T11:50:25.078Z,87.90
2023-01-18T11:53:59.640Z,84.60
2023-01-18T11:57:28.165Z,82.10
2023-01-18T12:01:09.765Z,88.70
2023-01-18T12:04:52.769Z,73.80
2023-01-18T12:08:53.179Z,96.90
2023-01-18T12:12:37.653Z,64.00
2023-01-18T12:16:15.482Z,104.80
2023-01-18T12:19:59.673Z,104.30
2023-01-18T12:23:42.374Z,111.70
2023-01-18T12:27:16.460Z,106.30
2023-01-18T12:30:55.275Z,93.10
2023-01-18T12:34:27.287Z,77.80
2023-01-18T12:38:04.694Z,95.70
2023-01-18T12:41:51.117Z,68.00
2023-01-18T12:45:28.403Z,103.70
2023-01-18T12:49:00.666Z,91.80
2023-01-18T12:52:28.665Z,88.00
2023-01-18T12:55:59.543Z,101.80
2023-01-18T12:59:30.567Z,92.00
2023-01-18T13:02:59.127Z,89.60
2023-01-18T13:06:28.708Z,80.80
2023-01-18T13:09:56.856Z,92.50
2023-01-18T13:13:28.623Z,85.80
2023-01-18T13:17:06.097Z,80.90
2023-01-18T13:20:44.579Z,89.20
2023-01-18T13:24:29.264Z,82.70
2023-01-18T13:28:05.515Z,77.80
2023-01-18T13:31:34.441Z,81.90
2023-01-18T13:35:19.664Z,78.90
2023-01-18T13:38:55.741Z,83.30
2023-01-18T13:42:38.360Z,82.20
2023-01-18T13:46:20.594Z,70.90
2023-01-18T13:49:49.720Z,82.30
2023-01-18T13:53:31.656Z,168.90
2023-01-18T14:00:51.883Z,77.10
2023-01-18T14:04:34.433Z,96.90
2023-01-18T14:08:05.367Z,119.10
2023-01-18T14:11:36.627Z,112.90
2023-01-18T14:15:04.400Z,82.60
2023-01-18T14:18:33.078Z,87.10
2023-01-18T14:22:26.606Z,100.40
2023-01-18T14:26:02.823Z,113.50
2023-01-18T14:29:36.495Z,126.50
2023-01-18T14:33:09.174Z,108.50
2023-01-18T14:36:38.687Z,138.10
2023-01-18T14:40:19.237Z,278.00
2023-01-18T14:43:48.835Z,177.20
2023-01-18T14:47:24.424Z,129.70
2023-01-18T14:50:54.980Z,125.30
2023-01-18T14:54:25.998Z,123.50
2023-01-18T14:58:11.510Z,137.40
2023-01-18T15:01:40.585Z,146.30
2023-01-18T15:05:16.917Z,114.00
2023-01-18T15:08:46.138Z,124.70
2023-01-18T15:12:16.967Z,105.90
2023-01-18T15:15:45.140Z,92.20
2023-01-18T15:19:20.704Z,94.20
2023-01-18T15:22:51.017Z,103.70
2023-01-18T15:26:18.156Z,99.60
2023-01-18T15:29:51.283Z,97.20
2023-01-18T15:33:20.645Z,101.50
2023-01-18T15:36:49.212Z,89.90
2023-01-18T15:40:30.660Z,86.10
2023-01-18T15:43:58.213Z,87.30
2023-01-18T15:47:28.841Z,77.90
2023-01-18T15:50:57.970Z,87.40
2023-01-18T15:54:28.585Z,95.60
2023-01-18T15:58:00.935Z,110.00
2023-01-18T16:01:31.995Z,98.70
2023-01-18T16:05:21.193Z,97.70
2023-01-18T16:09:11.835Z,120.40
2023-01-18T16:12:40.459Z,117.30
2023-01-18T16:16:19.307Z,106.30
2023-01-18T16:19:50.421Z,124.80
2023-01-18T16:23:23.126Z,116.00
2023-01-18T16:26:50.861Z,121.30
2023-01-18T16:30:24.077Z,132.30
2023-01-18T16:33:51.316Z,120.00
2023-01-18T16:37:19.395Z,134.10
2023-01-18T16:40:50.334Z,123.90
2023-01-18T16:44:18.228Z,114.00
2023-01-18T16:47:45.739Z,123.60
2023-01-18T16:51:18.539Z,137.00
2023-01-18T16:54:46.995Z,155.50
2023-01-18T16:58:15.417Z,151.70
2023-01-18T17:01:42.881Z,152.10
2023-01-18T17:05:12.219Z,201.20
2023-01-18T17:08:40.340Z,281.80
2023-01-18T17:12:08.826Z,253.60
2023-01-18T17:15:41.454Z,188.90
2023-01-18T17:19:16.863Z,177.90
2023-01-18T17:22:45.045Z,155.40
2023-01-18T17:26:16.783Z,137.80
2023-01-18T17:29:45.103Z,124.80
2023-01-18T17:33:19.590Z,116.70
2023-01-18T17:36:47.323Z,105.50
2023-01-18T17:40:24.065Z,94.00
2023-01-18T17:43:56.173Z,99.90
2023-01-18T17:47:23.609Z,101.80
2023-01-18T17:50:51.244Z,97.00
2023-01-18T17:54:21.025Z,109.50
2023-01-18T17:57:48.983Z,89.90
2023-01-18T18:01:18.476Z,91.50
2023-01-18T18:04:46.228Z,96.60
2023-01-18T18:08:13.662Z,91.00
2023-01-18T18:11:41.448Z,103.10
2023-01-18T18:15:10.825Z,100.80
2023-01-18T18:18:39.197Z,117.20
2023-01-18T18:22:07.329Z,119.10
2023-01-18T18:25:35.569Z,129.10
2023-01-18T18:29:03.218Z,159.90
2023-01-18T18:32:30.828Z,154.40
2023-01-18T18:35:59.090Z,133.60
2023-01-18T18:39:26.776Z,124.80
2023-01-18T18:43:02.349Z,119.40
2023-01-18T18:46:30.592Z,119.10
2023-01-18T18:49:58.361Z,122.30
2023-01-18T18:53:37.068Z,116.00
2023-01-18T18:57:06.116Z,116.60
2023-01-18T19:00:34.454Z,116.50
2023-01-18T19:04:02.517Z,123.10
2023-01-18T19:07:29.660Z,144.90
2023-01-18T19:10:57.598Z,137.80
2023-01-18T19:14:26.641Z,135.70
2023-01-18T19:17:54.808Z,134.40
2023-01-18T19:21:23.073Z,131.00
2023-01-18T19:24:51.768Z,124.40
2023-01-18T19:28:19.939Z,132.70
2023-01-18T19:31:47.361Z,133.30
2023-01-18T19:35:16.387Z,129.50
2023-01-18T19:38:48.049Z,133.00
2023-01-18T19:42:18.632Z,134.10
2023-01-18T19:45:46.764Z,140.00
2023-01-18T19:49:15.488Z,133.30
2023-01-18T19:52:46.015Z,138.00
2023-01-18T19:56:13.950Z,127.10
2023-01-18T19:59:42.757Z,130.60
2023-01-18T20:03:13.527Z,130.40
2023-01-18T20:06:43.288Z,113.90
2023-01-18T20:10:12.309Z,124.80
2023-01-18T20:13:42.083Z,124.20
2023-01-18T20:17:09.428Z,133.60
2023-01-18T20:20:36.685Z,129.20
2023-01-18T20:24:03.838Z,141.80
2023-01-18T20:27:31.809Z,154.10
2023-01-18T20:31:00.791Z,171.30
2023-01-18T20:34:28.721Z,141.10
2023-01-18T20:37:56.455Z,128.40
2023-01-18T20:41:24.468Z,126.30
2023-01-18T20:44:54.042Z,123.40
2023-01-18T20:48:22.113Z,121.90
2023-01-18T20:51:50.501Z,118.20
2023-01-18T20:55:19.297Z,110.90
2023-01-18T20:58:47.727Z,114.10
2023-01-18T21:02:16.136Z,111.20
2023-01-18T21:05:47.744Z,110.00
2023-01-18T21:09:16.255Z,102.20
2023-01-18T21:12:44.952Z,107.80
2023-01-18T21:16:13.809Z,107.20
2023-01-18T21:19:47.640Z,115.10
2023-01-18T21:23:17.781Z,105.10
2023-01-18T21:26:46.369Z,110.40
2023-01-18T21:30:16.907Z,123.40
2023-01-18T21:33:44.821Z,114.70
2023-01-18T21:37:13.133Z,127.20
2023-01-18T21:40:41.272Z,119.70
2023-01-18T21:44:29.161Z,115.00
2023-01-18T21:47:56.688Z,115.80
2023-01-18T21:51:50.029Z,118.10
2023-01-18T21:55:17.900Z,149.20
2023-01-18T21:58:54.610Z,122.40
2023-01-18T22:02:22.619Z,126.00
2023-01-18T22:05:50.343Z,114.40
2023-01-18T22:09:17.939Z,105.00
2023-01-18T22:12:44.883Z,116.00
2023-01-18T22:16:11.994Z,105.90
2023-01-18T22:19:39.569Z,108.50
2023-01-18T22:23:06.574Z,107.20
2023-01-18T22:26:36.152Z,102.50
2023-01-18T22:30:04.121Z,97.30
2023-01-18T22:33:31.515Z,106.30
2023-01-18T22:36:58.455Z,110.50
2023-01-18T22:40:25.501Z,117.70
2023-01-18T22:43:53.036Z,124.50
2023-01-18T22:47:19.932Z,120.00
2023-01-18T22:50:55.018Z,102.40
2023-01-18T22:54:23.084Z,82.60
2023-01-18T22:57:50.260Z,95.80
2023-01-18T23:01:23.306Z,91.80
2023-01-18T23:04:50.387Z,87.70
2023-01-18T23:08:17.335Z,96.40
2023-01-18T23:11:45.522Z,90.30
2023-01-18T23:15:32.456Z,86.00
2023-01-18T23:18:59.867Z,73.40
2023-01-18T23:22:27.162Z,92.60
2023-01-18T23:25:58.081Z,95.40
2023-01-18T23:29:25.416Z,84.70
2023-01-18T23:32:52.627Z,90.00
2023-01-18T23:36:19.634Z,86.40
2023-01-18T23:40:04.493Z,75.30
2023-01-18T23:43:49.342Z,83.70
2023-01-18T23:47:34.119Z,94.20
2023-01-18T23:51:19.286Z,99.30
2023-01-18T23:54:46.313Z,113.30
2023-01-18T23:58:13.839Z,101.50
